Time;durP1;ratioP1;P1;durP2;ratioP2;P2;SDS_P1;SDS_P2;PMS_P1;PMS_P2;Temp;Humidity;BMP_temperature;BMP_pressure;BME280_temperature;BME280_humidity;BME280_pressure;Samples;Min_cycle;Max_cycle;Signal;HPM_P1;HPM_P2
2023/08/17 00:02:15;;;;;;;56.27;2.00;;;;;;;;;;5055139;28;20503;-69
2023/08/17 00:04:41;;;;;;;56.77;2.37;;;;;;;;;;5055960;28;20959;-69
2023/08/17 00:07:08;;;;;;;56.47;2.37;;;;;;;;;;5053287;28;20452;-70
2023/08/17 00:09:35;;;;;;;56.57;2.27;;;;;;;;;;5058682;28;20920;-69
2023/08/17 00:12:03;;;;;;;56.67;2.27;;;;;;;;;;5058880;28;20444;-69
2023/08/17 00:14:30;;;;;;;56.47;2.10;;;;;;;;;;5058876;28;20499;-70
2023/08/17 00:16:59;;;;;;;56.70;2.50;;;;;;;;;;5059899;28;20815;-69
2023/08/17 00:19:26;;;;;;;56.70;2.30;;;;;;;;;;5059301;28;21086;-69
2023/08/17 00:21:54;;;;;;;56.60;2.20;;;;;;;;;;5058569;28;20982;-69
2023/08/17 00:24:21;;;;;;;56.60;2.30;;;;;;;;;;5058663;28;20522;-70
2023/08/17 00:26:49;;;;;;;56.60;2.33;;;;;;;;;;5058633;28;20456;-69
2023/08/17 00:29:17;;;;;;;56.60;2.20;;;;;;;;;;5058806;28;20444;-69
2023/08/17 00:31:44;;;;;;;56.27;2.20;;;;;;;;;;5059631;28;20448;-69
2023/08/17 00:34:12;;;;;;;56.40;2.17;;;;;;;;;;5058930;28;20555;-69
2023/08/17 00:36:39;;;;;;;56.60;1.97;;;;;;;;;;5058859;28;20447;-70
2023/08/17 00:39:06;;;;;;;56.57;2.50;;;;;;;;;;5059383;28;20824;-69
2023/08/17 00:41:33;;;;;;;57.17;2.47;;;;;;;;;;5058953;28;20453;-69
2023/08/17 00:44:01;;;;;;;56.60;2.30;;;;;;;;;;5058674;28;20996;-69
2023/08/17 00:46:28;;;;;;;56.37;2.17;;;;;;;;;;5055033;28;20498;-69
2023/08/17 00:48:56;;;;;;;57.80;2.63;;;;;;;;;;5051435;28;20444;-69
2023/08/17 00:51:25;;;;;;;56.60;2.53;;;;;;;;;;5051450;28;20440;-70
2023/08/17 00:53:52;;;;;;;56.67;2.33;;;;;;;;;;5050567;28;20457;-69
2023/08/17 00:56:19;;;;;;;56.50;2.30;;;;;;;;;;5051062;28;20499;-70
2023/08/17 00:58:46;;;;;;;56.90;2.93;;;;;;;;;;5051481;28;20441;-69
2023/08/17 01:01:13;;;;;;;60.40;2.73;;;;;;;;;;5052167;28;20820;-70
2023/08/17 01:03:42;;;;;;;56.87;2.50;;;;;;;;;;5054220;28;20498;-69
2023/08/17 01:06:10;;;;;;;56.67;2.37;;;;;;;;;;5054356;28;20955;-69
2023/08/17 01:08:38;;;;;;;56.40;2.30;;;;;;;;;;5054229;28;20970;-69
2023/08/17 01:11:10;;;;;;;56.83;2.83;;;;;;;;;;5054318;28;20452;-70
2023/08/17 01:13:39;;;;;;;56.70;2.83;;;;;;;;;;5054158;28;20799;-69
2023/08/17 01:16:07;;;;;;;57.20;3.10;;;;;;;;;;5054551;28;20441;-70
2023/08/17 01:18:36;;;;;;;57.10;3.10;;;;;;;;;;5054489;28;20448;-69
2023/08/17 01:21:04;;;;;;;56.70;2.93;;;;;;;;;;5054221;28;20518;-69
2023/08/17 01:23:32;;;;;;;57.27;2.53;;;;;;;;;;5054158;28;20500;-69
2023/08/17 01:25:59;;;;;;;59.63;2.80;;;;;;;;;;5054246;28;20792;-69
2023/08/17 01:28:26;;;;;;;57.00;2.87;;;;;;;;;;5054314;28;20451;-69
2023/08/17 01:30:57;;;;;;;56.40;2.27;;;;;;;;;;5054355;28;20444;-69
2023/08/17 01:33:26;;;;;;;56.40;2.10;;;;;;;;;;5053737;28;21098;-70
2023/08/17 01:35:56;;;;;;;57.00;2.93;;;;;;;;;;5053911;28;20455;-69
2023/08/17 01:38:23;;;;;;;56.27;2.00;;;;;;;;;;5053872;28;20459;-69
2023/08/17 01:40:54;;;;;;;56.40;2.20;;;;;;;;;;5054261;28;20452;-69
2023/08/17 01:43:21;;;;;;;56.27;2.50;;;;;;;;;;5054324;28;20495;-70
2023/08/17 01:45:48;;;;;;;56.43;2.30;;;;;;;;;;5057530;28;20448;-70
2023/08/17 01:48:15;;;;;;;56.70;2.20;;;;;;;;;;5060578;28;21106;-69
2023/08/17 01:50:43;;;;;;;56.07;2.07;;;;;;;;;;5053838;28;20800;-70
2023/08/17 01:53:11;;;;;;;57.00;2.60;;;;;;;;;;5052216;28;20462;-70
2023/08/17 01:55:38;;;;;;;56.27;2.20;;;;;;;;;;5053389;28;20451;-69
2023/08/17 01:58:07;;;;;;;57.60;2.77;;;;;;;;;;5055440;28;20436;-69
2023/08/17 02:00:34;;;;;;;56.70;2.50;;;;;;;;;;5053525;28;20447;-70
2023/08/17 02:03:01;;;;;;;56.40;2.50;;;;;;;;;;5052865;28;20483;-70
2023/08/17 02:05:29;;;;;;;56.47;2.10;;;;;;;;;;5053182;28;20456;-69
2023/08/17 02:07:56;;;;;;;56.60;2.30;;;;;;;;;;5053448;28;20452;-69
2023/08/17 02:10:23;;;;;;;56.93;2.60;;;;;;;;;;5053194;28;20445;-69
2023/08/17 02:12:50;;;;;;;56.57;2.37;;;;;;;;;;5052431;28;20440;-69
2023/08/17 02:15:19;;;;;;;56.80;2.73;;;;;;;;;;5053298;28;20820;-69
2023/08/17 02:17:46;;;;;;;56.40;2.40;;;;;;;;;;5053437;28;20440;-70
2023/08/17 02:20:14;;;;;;;56.33;2.30;;;;;;;;;;5053153;28;20440;-69
2023/08/17 02:22:41;;;;;;;56.80;2.40;;;;;;;;;;5052674;28;20449;-69
2023/08/17 02:25:09;;;;;;;56.50;2.60;;;;;;;;;;5052986;28;20465;-69
2023/08/17 02:27:36;;;;;;;56.60;2.40;;;;;;;;;;5053123;28;20862;-69
2023/08/17 02:30:03;;;;;;;56.60;2.30;;;;;;;;;;5053043;28;20466;-69
2023/08/17 02:32:32;;;;;;;57.77;3.20;;;;;;;;;;5052579;28;20478;-69
2023/08/17 02:34:59;;;;;;;56.50;2.50;;;;;;;;;;5052725;28;20471;-69
2023/08/17 02:37:26;;;;;;;56.33;2.33;;;;;;;;;;5052369;28;20543;-70
2023/08/17 02:39:53;;;;;;;56.57;2.70;;;;;;;;;;5052518;28;20843;-69
2023/08/17 02:42:20;;;;;;;57.33;2.97;;;;;;;;;;5052549;28;20464;-69
2023/08/17 02:44:47;;;;;;;57.77;2.70;;;;;;;;;;5052842;28;20506;-69
2023/08/17 02:47:14;;;;;;;57.07;2.77;;;;;;;;;;5052519;28;20444;-70
2023/08/17 02:49:43;;;;;;;56.47;2.17;;;;;;;;;;5052552;28;20452;-69
2023/08/17 02:52:10;;;;;;;56.77;2.67;;;;;;;;;;5052126;28;20448;-69
2023/08/17 02:54:37;;;;;;;56.47;1.87;;;;;;;;;;5052407;28;20487;-69
2023/08/17 03:00:08;;;;;;;56.43;2.53;;;;;;;;;;5050698;28;20575;-69
2023/08/17 03:02:35;;;;;;;56.60;2.40;;;;;;;;;;5051862;28;20535;-69
2023/08/17 03:05:04;;;;;;;57.00;3.03;;;;;;;;;;5052361;28;20484;-70
2023/08/17 03:07:31;;;;;;;56.63;2.30;;;;;;;;;;5051965;28;20948;-69
2023/08/17 03:09:58;;;;;;;56.37;2.80;;;;;;;;;;5052086;28;20966;-70
2023/08/17 03:12:26;;;;;;;56.67;2.27;;;;;;;;;;5051792;28;20827;-69
2023/08/17 03:14:53;;;;;;;57.43;2.87;;;;;;;;;;5051806;28;20471;-69
2023/08/17 03:17:20;;;;;;;57.20;4.00;;;;;;;;;;5051994;28;20455;-68
2023/08/17 03:19:47;;;;;;;56.80;2.60;;;;;;;;;;5051877;28;20448;-69
2023/08/17 03:22:16;;;;;;;56.60;2.30;;;;;;;;;;5051664;28;20455;-69
2023/08/17 03:24:43;;;;;;;58.27;2.97;;;;;;;;;;5051781;28;20595;-69
2023/08/17 03:27:10;;;;;;;56.90;2.40;;;;;;;;;;5051864;28;20475;-69
2023/08/17 03:29:37;;;;;;;57.13;2.33;;;;;;;;;;5051837;28;20448;-69
2023/08/17 03:32:04;;;;;;;57.10;4.00;;;;;;;;;;5051464;28;20962;-69
2023/08/17 03:34:31;;;;;;;56.33;2.43;;;;;;;;;;5051780;28;20464;-69
2023/08/17 03:36:58;;;;;;;57.07;2.30;;;;;;;;;;5051543;28;20463;-69
2023/08/17 03:39:27;;;;;;;56.50;2.30;;;;;;;;;;5051572;28;20444;-69
2023/08/17 03:41:54;;;;;;;57.30;2.53;;;;;;;;;;5051229;28;20444;-69
2023/08/17 03:44:21;;;;;;;56.30;2.20;;;;;;;;;;5051232;28;20491;-69
2023/08/17 03:46:48;;;;;;;56.53;2.60;;;;;;;;;;5051410;28;20558;-69
2023/08/17 03:49:16;;;;;;;57.77;3.07;;;;;;;;;;5051408;28;20444;-69
2023/08/17 03:51:43;;;;;;;56.67;2.50;;;;;;;;;;5051039;28;20455;-69
2023/08/17 03:54:10;;;;;;;56.67;2.60;;;;;;;;;;5051191;28;20994;-69
2023/08/17 03:56:39;;;;;;;56.90;4.03;;;;;;;;;;5051068;28;20440;-69
2023/08/17 03:59:06;;;;;;;56.80;2.50;;;;;;;;;;5051407;28;20444;-69
2023/08/17 04:01:33;;;;;;;56.70;2.40;;;;;;;;;;5051238;28;20815;-69
2023/08/17 04:04:00;;;;;;;56.60;2.57;;;;;;;;;;5051251;28;20492;-69
2023/08/17 04:06:27;;;;;;;57.87;3.67;;;;;;;;;;5051209;28;20443;-69
2023/08/17 04:08:54;;;;;;;57.00;3.33;;;;;;;;;;5051066;28;20444;-69
2023/08/17 04:11:21;;;;;;;56.40;2.33;;;;;;;;;;5051328;28;21177;-69
2023/08/17 04:13:50;;;;;;;56.60;2.50;;;;;;;;;;5051024;28;20836;-69
2023/08/17 04:16:17;;;;;;;57.40;2.63;;;;;;;;;;5051316;28;20444;-69
2023/08/17 04:18:44;;;;;;;56.87;3.13;;;;;;;;;;5051132;28;20440;-69
2023/08/17 04:21:11;;;;;;;57.10;2.60;;;;;;;;;;5051029;28;20451;-69
2023/08/17 04:23:38;;;;;;;56.27;2.27;;;;;;;;;;5050658;28;20488;-69
2023/08/17 04:26:05;;;;;;;56.50;2.20;;;;;;;;;;5051125;28;20458;-69
2023/08/17 04:28:32;;;;;;;56.60;2.60;;;;;;;;;;5050914;28;20913;-69
2023/08/17 04:31:01;;;;;;;57.10;2.80;;;;;;;;;;5050945;28;20963;-69
2023/08/17 04:33:28;;;;;;;56.80;3.00;;;;;;;;;;5050607;28;20459;-69
2023/08/17 04:35:55;;;;;;;56.83;2.43;;;;;;;;;;5051509;28;20467;-69
2023/08/17 04:38:22;;;;;;;56.70;2.40;;;;;;;;;;5054880;28;20463;-69
2023/08/17 04:40:49;;;;;;;57.20;3.03;;;;;;;;;;5054701;28;20450;-69
2023/08/17 04:43:16;;;;;;;56.67;2.27;;;;;;;;;;5054475;28;20471;-69
2023/08/17 04:45:44;;;;;;;56.47;2.67;;;;;;;;;;5054778;28;20440;-70
2023/08/17 04:48:12;;;;;;;57.10;3.50;;;;;;;;;;5054670;28;20549;-69
2023/08/17 04:50:39;;;;;;;61.40;2.70;;;;;;;;;;5054922;28;20452;-69
2023/08/17 04:53:06;;;;;;;57.20;3.23;;;;;;;;;;5054415;28;20450;-69
2023/08/17 04:55:33;;;;;;;57.00;2.80;;;;;;;;;;5054697;28;20440;-70
2023/08/17 04:58:00;;;;;;;56.57;2.37;;;;;;;;;;5054577;28;20447;-69
2023/08/17 05:00:28;;;;;;;58.90;4.10;;;;;;;;;;5054566;28;20452;-70
2023/08/17 05:02:55;;;;;;;57.97;3.30;;;;;;;;;;5054239;28;20444;-69
2023/08/17 05:05:24;;;;;;;56.50;2.67;;;;;;;;;;5054149;28;21007;-70
2023/08/17 05:07:51;;;;;;;57.67;3.13;;;;;;;;;;5054461;28;20440;-69
2023/08/17 05:10:18;;;;;;;56.30;2.43;;;;;;;;;;5054372;28;20440;-70
2023/08/17 05:12:46;;;;;;;60.23;3.60;;;;;;;;;;5054050;28;20467;-70
2023/08/17 05:15:13;;;;;;;60.27;3.20;;;;;;;;;;5054163;28;20472;-70
2023/08/17 05:17:40;;;;;;;56.43;2.43;;;;;;;;;;5054029;28;20444;-71
2023/08/17 05:20:08;;;;;;;59.33;4.90;;;;;;;;;;5053972;28;20448;-70
2023/08/17 05:22:37;;;;;;;58.07;2.97;;;;;;;;;;5053984;28;20440;-68
2023/08/17 05:25:04;;;;;;;57.10;3.17;;;;;;;;;;5053926;28;20488;-69
2023/08/17 05:27:31;;;;;;;56.30;2.33;;;;;;;;;;5054161;28;20447;-68
2023/08/17 05:29:59;;;;;;;56.60;3.00;;;;;;;;;;5053974;28;20448;-69
2023/08/17 05:32:26;;;;;;;56.27;2.50;;;;;;;;;;5053509;28;20454;-69
2023/08/17 05:34:53;;;;;;;57.07;3.23;;;;;;;;;;5053615;28;20470;-68
2023/08/17 05:37:20;;;;;;;56.90;3.30;;;;;;;;;;5053852;28;20810;-68
2023/08/17 05:39:48;;;;;;;56.93;2.97;;;;;;;;;;5053707;28;20452;-68
2023/08/17 05:42:16;;;;;;;56.60;2.30;;;;;;;;;;5053520;28;20817;-69
2023/08/17 05:44:43;;;;;;;91.60;4.23;;;;;;;;;;5053755;28;20863;-68
2023/08/17 05:47:10;;;;;;;57.37;2.90;;;;;;;;;;5052693;28;20444;-68
2023/08/17 05:49:37;;;;;;;56.90;3.20;;;;;;;;;;5053486;28;20451;-68
2023/08/17 05:52:05;;;;;;;56.57;2.23;;;;;;;;;;5053395;28;20476;-68
2023/08/17 05:54:32;;;;;;;57.20;3.00;;;;;;;;;;5053670;28;20461;-69
2023/08/17 05:57:00;;;;;;;61.07;4.20;;;;;;;;;;5053387;28;20452;-69
2023/08/17 05:59:27;;;;;;;59.90;3.47;;;;;;;;;;5053232;28;20448;-69
2023/08/17 06:01:54;;;;;;;57.43;2.43;;;;;;;;;;5053194;28;20893;-69
2023/08/17 06:04:21;;;;;;;56.97;3.40;;;;;;;;;;5053022;28;20488;-69
2023/08/17 06:06:49;;;;;;;58.00;3.23;;;;;;;;;;5053362;28;20455;-68
2023/08/17 06:09:16;;;;;;;55.97;2.07;;;;;;;;;;5053202;28;20444;-69
2023/08/17 06:11:43;;;;;;;56.60;3.40;;;;;;;;;;5052864;28;20451;-69
2023/08/17 06:14:12;;;;;;;57.97;2.70;;;;;;;;;;5052876;28;20463;-68
2023/08/17 06:16:39;;;;;;;57.00;2.80;;;;;;;;;;5053132;28;20483;-69
2023/08/17 06:19:06;;;;;;;56.73;2.90;;;;;;;;;;5052966;28;20459;-69
2023/08/17 06:21:33;;;;;;;56.70;2.90;;;;;;;;;;5052985;28;20465;-69
2023/08/17 06:24:00;;;;;;;57.27;3.27;;;;;;;;;;5052643;28;20467;-69
2023/08/17 06:26:27;;;;;;;56.20;1.83;;;;;;;;;;5052788;28;20455;-69
2023/08/17 06:28:54;;;;;;;56.50;2.70;;;;;;;;;;5052749;28;20540;-69
2023/08/17 06:31:27;;;;;;;57.47;2.80;;;;;;;;;;5052826;28;20440;-69
2023/08/17 06:33:54;;;;;;;56.90;2.67;;;;;;;;;;5052316;28;20992;-69
2023/08/17 06:36:21;;;;;;;56.87;3.30;;;;;;;;;;5052654;28;20440;-69
2023/08/17 06:38:48;;;;;;;58.50;2.77;;;;;;;;;;5052535;28;20839;-69
2023/08/17 06:41:15;;;;;;;57.10;2.20;;;;;;;;;;5052465;28;20450;-69
2023/08/17 06:43:42;;;;;;;60.73;4.63;;;;;;;;;;5052171;28;20995;-69
2023/08/17 06:46:09;;;;;;;57.47;2.97;;;;;;;;;;5052375;28;20503;-68
2023/08/17 06:48:38;;;;;;;60.00;3.20;;;;;;;;;;5052444;28;20437;-69
2023/08/17 06:51:05;;;;;;;57.03;2.87;;;;;;;;;;5052554;28;20941;-69
2023/08/17 06:53:32;;;;;;;59.60;3.03;;;;;;;;;;5052002;28;20549;-69
2023/08/17 06:55:59;;;;;;;56.67;3.00;;;;;;;;;;5052052;28;20467;-68
2023/08/17 06:58:26;;;;;;;57.30;3.60;;;;;;;;;;5052142;28;20448;-68
2023/08/17 07:00:53;;;;;;;56.20;2.20;;;;;;;;;;5052100;28;20966;-69
2023/08/17 07:03:21;;;;;;;57.07;3.10;;;;;;;;;;5051885;28;20469;-69
2023/08/17 07:05:49;;;;;;;58.07;3.00;;;;;;;;;;5051880;28;20484;-69
2023/08/17 07:08:16;;;;;;;56.67;2.50;;;;;;;;;;5051873;28;20562;-69
2023/08/17 07:10:44;;;;;;;56.73;2.60;;;;;;;;;;5052254;28;20444;-69
2023/08/17 07:13:11;;;;;;;56.60;2.80;;;;;;;;;;5051764;28;20555;-69
2023/08/17 07:15:38;;;;;;;138.03;4.60;;;;;;;;;;5051976;28;20440;-69
2023/08/17 07:18:06;;;;;;;56.50;2.37;;;;;;;;;;5051928;28;20455;-69
2023/08/17 07:20:33;;;;;;;56.13;1.90;;;;;;;;;;5051783;28;20441;-69
2023/08/17 07:23:01;;;;;;;56.57;2.50;;;;;;;;;;5051394;28;20445;-69
2023/08/17 07:25:28;;;;;;;56.00;2.63;;;;;;;;;;5051756;28;20480;-69
2023/08/17 07:27:55;;;;;;;56.90;2.90;;;;;;;;;;5052068;28;20816;-69
2023/08/17 07:30:22;;;;;;;57.20;2.70;;;;;;;;;;5051759;28;20441;-69
2023/08/17 07:32:49;;;;;;;57.20;3.00;;;;;;;;;;5051383;28;20474;-69
2023/08/17 07:35:16;;;;;;;56.73;2.80;;;;;;;;;;5051477;28;20440;-69
2023/08/17 07:37:44;;;;;;;56.50;2.67;;;;;;;;;;5051446;28;20453;-69
2023/08/17 07:40:13;;;;;;;57.53;3.47;;;;;;;;;;5051668;28;20815;-69
2023/08/17 07:42:40;;;;;;;56.80;3.50;;;;;;;;;;5051360;28;20444;-69
2023/08/17 07:45:07;;;;;;;57.27;3.30;;;;;;;;;;5051273;28;20487;-68
2023/08/17 07:47:36;;;;;;;56.50;2.83;;;;;;;;;;5051268;28;20531;-69
2023/08/17 07:50:03;;;;;;;56.40;2.20;;;;;;;;;;5051272;28;20930;-69
2023/08/17 07:52:30;;;;;;;57.30;3.07;;;;;;;;;;5050964;28;20539;-69
2023/08/17 07:54:57;;;;;;;56.20;2.30;;;;;;;;;;5051354;28;20832;-69
2023/08/17 07:57:24;;;;;;;56.37;2.53;;;;;;;;;;5051190;28;20444;-69
2023/08/17 07:59:53;;;;;;;56.77;2.87;;;;;;;;;;5051863;28;20448;-69
2023/08/17 08:02:20;;;;;;;56.70;2.40;;;;;;;;;;5050802;28;20538;-69
2023/08/17 08:04:47;;;;;;;56.50;2.50;;;;;;;;;;5051221;28;20487;-69
2023/08/17 08:07:14;;;;;;;55.90;1.90;;;;;;;;;;5050982;28;20952;-69
2023/08/17 08:09:42;;;;;;;56.90;2.50;;;;;;;;;;5051251;28;20452;-69
2023/08/17 08:12:09;;;;;;;56.70;2.30;;;;;;;;;;5050295;28;20456;-69
2023/08/17 08:14:37;;;;;;;57.00;2.47;;;;;;;;;;5050962;28;20468;-69
2023/08/17 08:17:05;;;;;;;56.27;2.10;;;;;;;;;;5050815;28;20451;-69
2023/08/17 08:19:32;;;;;;;56.97;3.20;;;;;;;;;;5051188;28;20448;-69
2023/08/17 08:21:59;;;;;;;58.20;3.00;;;;;;;;;;5050660;28;21048;-69
2023/08/17 08:24:31;;;;;;;57.10;2.60;;;;;;;;;;5050746;28;20472;-69
2023/08/17 08:26:58;;;;;;;56.67;3.37;;;;;;;;;;5050799;28;20539;-69
2023/08/17 08:29:25;;;;;;;57.60;3.03;;;;;;;;;;5050825;28;20491;-69
2023/08/17 08:31:54;;;;;;;56.97;3.93;;;;;;;;;;5050573;28;20728;-69
2023/08/17 08:34:21;;;;;;;57.20;2.83;;;;;;;;;;5050974;28;20464;-67
2023/08/17 08:36:48;;;;;;;56.57;3.00;;;;;;;;;;5050828;28;20448;-68
2023/08/17 08:39:16;;;;;;;58.03;2.57;;;;;;;;;;5050909;28;20851;-68
2023/08/17 08:41:43;;;;;;;56.90;2.70;;;;;;;;;;5050570;28;20444;-68
2023/08/17 08:44:10;;;;;;;56.80;2.30;;;;;;;;;;5051094;28;20826;-69
2023/08/17 08:46:39;;;;;;;57.00;2.57;;;;;;;;;;5050801;28;20487;-68
2023/08/17 08:49:11;;;;;;;57.00;2.23;;;;;;;;;;5051112;28;20451;-68
2023/08/17 08:51:41;;;;;;;56.70;2.70;;;;;;;;;;5050581;28;20448;-68
2023/08/17 08:54:10;;;;;;;56.73;2.20;;;;;;;;;;5050729;28;20471;-68
2023/08/17 08:56:39;;;;;;;60.37;5.27;;;;;;;;;;5050491;28;20449;-68
2023/08/17 08:59:06;;;;;;;56.90;2.30;;;;;;;;;;5050910;28;20455;-68
2023/08/17 09:01:34;;;;;;;57.30;2.97;;;;;;;;;;5050924;28;20815;-68
2023/08/17 09:04:02;;;;;;;56.80;3.00;;;;;;;;;;5050608;28;20456;-68
2023/08/17 09:06:31;;;;;;;57.00;2.90;;;;;;;;;;5050374;28;21009;-69
2023/08/17 09:08:59;;;;;;;57.00;2.63;;;;;;;;;;5050396;28;20966;-68
2023/08/17 09:11:26;;;;;;;57.43;2.87;;;;;;;;;;5050654;28;20451;-68
2023/08/17 09:13:55;;;;;;;57.23;2.80;;;;;;;;;;5050371;28;20460;-68
2023/08/17 09:16:22;;;;;;;57.20;3.13;;;;;;;;;;5050537;28;20444;-68
2023/08/17 09:18:49;;;;;;;56.50;2.73;;;;;;;;;;5050541;28;20444;-68
2023/08/17 09:21:22;;;;;;;56.87;3.07;;;;;;;;;;5050687;28;20440;-69
2023/08/17 09:23:53;;;;;;;59.37;4.53;;;;;;;;;;5053532;28;20468;-69
2023/08/17 09:26:22;;;;;;;57.10;3.37;;;;;;;;;;5054072;28;20487;-69
2023/08/17 09:28:49;;;;;;;58.40;3.10;;;;;;;;;;5053792;28;20455;-69
2023/08/17 09:31:16;;;;;;;57.70;3.20;;;;;;;;;;5054116;28;20466;-69
2023/08/17 09:33:43;;;;;;;57.03;2.90;;;;;;;;;;5053923;28;20472;-69
2023/08/17 09:36:11;;;;;;;56.70;3.10;;;;;;;;;;5053558;28;20441;-69
2023/08/17 09:38:38;;;;;;;57.17;2.80;;;;;;;;;;5053721;28;20452;-69
2023/08/17 09:41:07;;;;;;;59.13;3.93;;;;;;;;;;5053644;28;20859;-69
2023/08/17 09:43:34;;;;;;;56.40;2.90;;;;;;;;;;5053369;28;20460;-69
2023/08/17 09:46:03;;;;;;;56.67;2.90;;;;;;;;;;5053478;28;20530;-69
2023/08/17 09:48:30;;;;;;;56.90;2.50;;;;;;;;;;5054066;28;20444;-69
2023/08/17 09:50:58;;;;;;;56.50;2.83;;;;;;;;;;5053413;28;20445;-69
2023/08/17 09:53:25;;;;;;;56.40;2.50;;;;;;;;;;5053315;28;20468;-69
2023/08/17 09:55:52;;;;;;;56.57;2.43;;;;;;;;;;5053556;28;20443;-69
2023/08/17 09:58:21;;;;;;;56.97;2.70;;;;;;;;;;5053400;28;20945;-69
2023/08/17 10:00:49;;;;;;;60.67;3.10;;;;;;;;;;5053643;28;20467;-70
2023/08/17 10:03:16;;;;;;;57.20;3.03;;;;;;;;;;5052898;28;20471;-70
2023/08/17 10:05:44;;;;;;;57.37;3.93;;;;;;;;;;5052962;28;20571;-69
2023/08/17 10:08:12;;;;;;;56.37;2.47;;;;;;;;;;5053352;28;20451;-69
2023/08/17 10:10:41;;;;;;;56.20;2.40;;;;;;;;;;5053351;28;20452;-70
2023/08/17 10:13:10;;;;;;;56.77;2.33;;;;;;;;;;5052791;28;20444;-70
2023/08/17 10:15:43;;;;;;;57.57;2.87;;;;;;;;;;5052934;28;20530;-70
2023/08/17 10:18:14;;;;;;;58.00;2.90;;;;;;;;;;5052947;28;20454;-70
2023/08/17 10:20:43;;;;;;;56.57;2.37;;;;;;;;;;5053161;28;20501;-70
2023/08/17 10:23:13;;;;;;;56.40;2.70;;;;;;;;;;5052678;28;20471;-68
2023/08/17 10:25:42;;;;;;;56.30;2.70;;;;;;;;;;5052748;28;20476;-68
2023/08/17 10:28:09;;;;;;;56.70;2.70;;;;;;;;;;5052762;28;20862;-68
2023/08/17 10:30:37;;;;;;;56.70;3.17;;;;;;;;;;5052673;28;20452;-69
2023/08/17 10:33:06;;;;;;;55.80;2.30;;;;;;;;;;5052434;28;20445;-68
2023/08/17 10:35:34;;;;;;;56.20;2.50;;;;;;;;;;5052289;28;20440;-69
2023/08/17 10:38:01;;;;;;;56.00;2.40;;;;;;;;;;5052601;28;20456;-69
2023/08/17 10:40:28;;;;;;;55.77;2.10;;;;;;;;;;5052593;28;20441;-69
2023/08/17 10:42:56;;;;;;;56.50;3.17;;;;;;;;;;5052081;28;20494;-69
2023/08/17 10:45:30;;;;;;;55.90;2.40;;;;;;;;;;5052333;28;20441;-69
2023/08/17 10:48:01;;;;;;;55.47;2.60;;;;;;;;;;5052436;28;20526;-69
2023/08/17 10:50:30;;;;;;;55.50;2.07;;;;;;;;;;5052463;28;20444;-69
2023/08/17 10:52:57;;;;;;;55.47;2.50;;;;;;;;;;5052752;28;20448;-69
2023/08/17 10:55:36;;;;;;;55.67;3.03;;;;;;;;;;5052089;28;20952;-69
2023/08/17 10:58:04;;;;;;;55.90;2.20;;;;;;;;;;5052216;28;20948;-69
2023/08/17 11:00:36;;;;;;;55.50;2.60;;;;;;;;;;5052229;28;20514;-70
2023/08/17 11:03:05;;;;;;;55.20;2.70;;;;;;;;;;5051870;28;20448;-69
2023/08/17 11:05:37;;;;;;;55.37;2.80;;;;;;;;;;5051969;28;20449;-70
2023/08/17 11:08:04;;;;;;;61.70;2.57;;;;;;;;;;5052300;28;20484;-69
2023/08/17 11:10:31;;;;;;;55.17;2.60;;;;;;;;;;5052112;28;20440;-70
2023/08/17 11:13:00;;;;;;;54.87;2.20;;;;;;;;;;5051723;28;20440;-70
2023/08/17 11:15:28;;;;;;;54.73;2.33;;;;;;;;;;5051945;28;20523;-70
2023/08/17 11:17:55;;;;;;;54.70;2.57;;;;;;;;;;5052119;28;20830;-70
2023/08/17 11:20:24;;;;;;;54.50;2.40;;;;;;;;;;5051699;28;20463;-70
2023/08/17 11:22:53;;;;;;;54.77;2.50;;;;;;;;;;5051598;28;20448;-70
2023/08/17 11:25:20;;;;;;;54.97;2.60;;;;;;;;;;5052022;28;20810;-70
2023/08/17 11:27:47;;;;;;;54.93;2.53;;;;;;;;;;5051697;28;20499;-70
2023/08/17 11:30:15;;;;;;;54.57;2.40;;;;;;;;;;5051694;28;20440;-70
2023/08/17 11:32:43;;;;;;;54.27;2.30;;;;;;;;;;5051127;28;20940;-70
2023/08/17 11:35:10;;;;;;;55.63;2.77;;;;;;;;;;5051447;28;20835;-70
2023/08/17 11:37:37;;;;;;;55.50;2.40;;;;;;;;;;5051482;28;20448;-69
2023/08/17 11:40:06;;;;;;;55.00;2.40;;;;;;;;;;5051720;28;20436;-70
2023/08/17 11:42:33;;;;;;;58.57;2.97;;;;;;;;;;5051165;28;20437;-69
2023/08/17 11:45:00;;;;;;;56.10;2.80;;;;;;;;;;5050886;28;20464;-70
2023/08/17 11:47:27;;;;;;;55.07;3.10;;;;;;;;;;5050772;28;20476;-70
2023/08/17 11:50:00;;;;;;;54.97;2.60;;;;;;;;;;5051509;28;20819;-69
2023/08/17 11:52:28;;;;;;;54.70;2.30;;;;;;;;;;5051213;28;20498;-70
2023/08/17 11:54:56;;;;;;;55.47;2.80;;;;;;;;;;5051190;28;20467;-70
2023/08/17 11:57:24;;;;;;;57.00;2.63;;;;;;;;;;5051151;28;20440;-70
2023/08/17 11:59:54;;;;;;;55.57;2.67;;;;;;;;;;5051063;28;20829;-70
2023/08/17 12:02:22;;;;;;;55.23;2.40;;;;;;;;;;5050848;28;20485;-70
2023/08/17 12:04:49;;;;;;;55.73;2.73;;;;;;;;;;5051272;28;20471;-69
2023/08/17 12:07:17;;;;;;;55.27;2.57;;;;;;;;;;5051221;28;20562;-70
2023/08/17 12:09:44;;;;;;;55.37;2.70;;;;;;;;;;5051011;28;20519;-70
2023/08/17 12:12:11;;;;;;;55.80;2.40;;;;;;;;;;5050785;28;20863;-70
2023/08/17 12:14:42;;;;;;;56.17;3.50;;;;;;;;;;5050901;28;20467;-69
2023/08/17 12:17:15;;;;;;;55.77;2.53;;;;;;;;;;5051198;28;20436;-69
2023/08/17 12:19:42;;;;;;;56.07;2.70;;;;;;;;;;5051306;28;20456;-69
2023/08/17 12:22:09;;;;;;;55.80;2.30;;;;;;;;;;5050792;28;20442;-69
2023/08/17 12:24:36;;;;;;;57.07;3.13;;;;;;;;;;5051029;28;20470;-69
2023/08/17 12:27:03;;;;;;;56.57;3.00;;;;;;;;;;5050636;28;20480;-69
2023/08/17 12:29:31;;;;;;;56.17;2.80;;;;;;;;;;5051147;28;20817;-69
2023/08/17 12:31:59;;;;;;;56.40;2.83;;;;;;;;;;5050640;28;20535;-69
2023/08/17 12:34:27;;;;;;;56.87;3.43;;;;;;;;;;5050925;28;20464;-68
2023/08/17 12:36:54;;;;;;;56.70;3.07;;;;;;;;;;5050681;28;20443;-69
2023/08/17 12:39:21;;;;;;;56.60;2.70;;;;;;;;;;5050788;28;20444;-69
2023/08/17 12:41:48;;;;;;;56.53;2.77;;;;;;;;;;5050434;28;20945;-69
2023/08/17 12:44:15;;;;;;;57.57;3.50;;;;;;;;;;5050920;28;20460;-69
2023/08/17 12:46:42;;;;;;;56.93;3.47;;;;;;;;;;5050906;28;20491;-69
2023/08/17 12:49:11;;;;;;;57.77;2.80;;;;;;;;;;5050958;28;20447;-69
2023/08/17 12:51:38;;;;;;;57.10;3.10;;;;;;;;;;5050496;28;20454;-69
2023/08/17 12:54:06;;;;;;;56.60;2.77;;;;;;;;;;5050499;28;20467;-69
2023/08/17 12:56:33;;;;;;;58.00;2.53;;;;;;;;;;5050990;28;20543;-69
2023/08/17 12:59:00;;;;;;;57.40;2.60;;;;;;;;;;5054644;28;20456;-69
2023/08/17 13:01:27;;;;;;;57.47;2.90;;;;;;;;;;5054507;28;20444;-69
2023/08/17 13:03:55;;;;;;;56.80;2.20;;;;;;;;;;5054249;28;20464;-69
2023/08/17 13:06:23;;;;;;;57.10;2.63;;;;;;;;;;5054229;28;20484;-69
2023/08/17 13:08:50;;;;;;;56.50;2.20;;;;;;;;;;5054392;28;20947;-69
2023/08/17 13:11:17;;;;;;;56.87;2.90;;;;;;;;;;5054199;28;20957;-69
2023/08/17 13:13:45;;;;;;;57.67;2.90;;;;;;;;;;5054076;28;20464;-68
2023/08/17 13:16:12;;;;;;;57.07;2.33;;;;;;;;;;5054212;28;20448;-69
2023/08/17 13:18:39;;;;;;;57.50;2.63;;;;;;;;;;5054186;28;20440;-69
2023/08/17 13:21:06;;;;;;;56.40;2.30;;;;;;;;;;5054003;28;20450;-68
2023/08/17 13:23:34;;;;;;;57.20;2.63;;;;;;;;;;5053960;28;20840;-69
2023/08/17 13:26:01;;;;;;;58.07;3.20;;;;;;;;;;5053990;28;20450;-69
2023/08/17 13:28:28;;;;;;;57.47;3.03;;;;;;;;;;5054068;28;20452;-68
2023/08/17 13:30:55;;;;;;;57.10;2.47;;;;;;;;;;5053982;28;20440;-68
2023/08/17 13:33:23;;;;;;;56.90;2.90;;;;;;;;;;5053510;28;20471;-69
2023/08/17 13:35:51;;;;;;;57.87;3.17;;;;;;;;;;5053869;28;20477;-68
2023/08/17 13:38:18;;;;;;;57.00;2.60;;;;;;;;;;5053577;28;20971;-69
2023/08/17 13:40:46;;;;;;;57.37;2.70;;;;;;;;;;5053922;28;20448;-69
2023/08/17 13:43:13;;;;;;;57.73;3.27;;;;;;;;;;5053519;28;20555;-69
2023/08/17 13:45:41;;;;;;;56.57;2.50;;;;;;;;;;5053778;28;20447;-69
2023/08/17 13:48:08;;;;;;;56.77;2.57;;;;;;;;;;5053508;28;20491;-69
2023/08/17 13:50:35;;;;;;;57.10;2.67;;;;;;;;;;5053427;28;20966;-68
2023/08/17 13:53:02;;;;;;;59.33;3.90;;;;;;;;;;5053316;28;20451;-69
2023/08/17 13:55:29;;;;;;;58.03;2.40;;;;;;;;;;5053457;28;20729;-70
2023/08/17 13:57:58;;;;;;;57.27;2.80;;;;;;;;;;5053323;28;20452;-69
2023/08/17 14:00:25;;;;;;;58.73;2.87;;;;;;;;;;5053358;28;20979;-69
2023/08/17 14:02:52;;;;;;;56.97;2.63;;;;;;;;;;5053118;28;20444;-69
2023/08/17 14:05:19;;;;;;;58.33;3.73;;;;;;;;;;5053490;28;20474;-69
2023/08/17 14:07:46;;;;;;;57.00;2.40;;;;;;;;;;5052848;28;20971;-69
2023/08/17 14:10:13;;;;;;;56.77;2.47;;;;;;;;;;5052599;28;20444;-69
2023/08/17 14:12:40;;;;;;;56.97;2.90;;;;;;;;;;5052968;28;20448;-69
2023/08/17 14:15:10;;;;;;;59.00;4.20;;;;;;;;;;5052927;28;20468;-69
2023/08/17 14:17:37;;;;;;;57.83;3.00;;;;;;;;;;5053372;28;20507;-69
2023/08/17 14:20:04;;;;;;;57.60;3.20;;;;;;;;;;5053160;28;20498;-70
2023/08/17 14:22:32;;;;;;;57.50;2.97;;;;;;;;;;5052825;28;20494;-69
2023/08/17 14:24:59;;;;;;;57.10;2.80;;;;;;;;;;5053276;28;20852;-70
2023/08/17 14:27:26;;;;;;;57.20;3.00;;;;;;;;;;5052744;28;20484;-70
2023/08/17 14:29:53;;;;;;;58.50;3.63;;;;;;;;;;5052725;28;20448;-69
2023/08/17 14:32:21;;;;;;;57.50;3.00;;;;;;;;;;5052790;28;20454;-70
2023/08/17 14:34:49;;;;;;;57.10;2.50;;;;;;;;;;5052806;28;20813;-70
2023/08/17 14:37:16;;;;;;;57.67;3.27;;;;;;;;;;5052548;28;20456;-69